プラハ の空港の天気 - METARとTAF

ルズィニエ国際空港(プラハ) ( LKPR / PRG ) - チェコ プラハ
飛行場実況気象(Metar)
観測時間02/28 01:30 CET (02/28 00:30 UTC)
風向・風速南南東 6m/s
視程10km以上
天気現象
なし
気温5℃
湿度70%
気圧998hPa
METARLKPR 280030Z 15012KT CAVOK 05/00 Q0998 NOSIG
過去の天気等 Google飛行場航空写真 Wunderground天気予報

過去48時間のMETAR

飛行場予報(TAF)
発表時間: 2/28 00:00 CET (2/27 23:00 UTC)
予報対象時間: 28日1時 CET ~ 1日7時 CET
風向・風速南南東 4m/s
視程10km以上
なし
28日8時 CET ~ 28日10時 CET に徐々に
風向・風速南南西 7m/s
視程10km以上
全天の8割程度の雲 雲底高度 1,070m
28日10時 CET ~ 1日7時 CET に一時的に
視程9,000m
天気現象弱い雨
全天の8割程度の雲 雲底高度 910m
28日17時 CET ~ 28日23時 CET に 確率 30% で一時的に
視程5,000m
天気現象雨 もや
全天の8割程度の雲 雲底高度 460m
28日23時 CET ~ 1日1時 CET に徐々に
風向・風速南西 8m/s 瞬間風速 16m/s
TAF LKPR 272300Z 2800/0106 16008KT CAVOK
BECMG 2807/2809 21013KT 9999 BKN035
TEMPO 2809/0106 9000 -RA BKN030
PROB30 TEMPO 2816/2822 5000 RA BR BKN015
BECMG 2822/0100 23016G32KT